RYG weather

Moss Airport, Rygge
Oslo, Østfold, Norway

Public forecast

Using degrees Celsius for public forecast. Weather courtesy of forecast.io.

Current aviation weather report (METAR) for Moss Airport, Rygge

Retrieved 2019/11/22 14:20 UTC (0 seconds ago):

ENRY 221420Z 06007KT 9999 -RA OVC011 06/05 Q1014 REDZ TEMPO BKN008

Aviation forecast (TAF) for Moss Airport, Rygge

Retrieved 2019/11/22 12:00 UTC (2 hours ago):

TAF TAF ENRY 221100Z 2212/2312 08008KT 8000 -RADZ FEW002 BKN015 TEMPO 2212/2224 2000 RADZ BR OVC004 TEMPO 2300/2312 1200 BR OVC002